Time;durP1;ratioP1;P1;durP2;ratioP2;P2;SDS_P1;SDS_P2;PMS_P1;PMS_P2;Temp;Humidity;BMP_temperature;BMP_pressure;BME280_temperature;BME280_humidity;BME280_pressure;Samples;Min_cycle;Max_cycle;Signal;HPM_P1;HPM_P2
2023/12/30 00:00:41;;;;;;;;;;;;;;;25.99;38.95;94304.50;4969694;28;7227;-36
2023/12/30 00:03:07;;;;;;;;;;;;;;;26.01;39.65;94299.22;4949273;28;7144;-35
2023/12/30 00:05:33;;;;;;;;;;;;;;;25.99;39.74;94295.50;4966152;28;7170;-36
2023/12/30 00:07:58;;;;;;;;;;;;;;;26.01;39.17;94296.47;4947909;28;9424;-36
2023/12/30 00:10:24;;;;;;;;;;;;;;;26.02;39.57;94297.22;4936327;28;9166;-36
2023/12/30 00:12:50;;;;;;;;;;;;;;;26.00;39.58;94306.00;4953860;28;8938;-36
2023/12/30 00:15:16;;;;;;;;;;;;;;;25.98;39.15;94305.78;4951943;28;8794;-36
2023/12/30 00:17:43;;;;;;;;;;;;;;;26.00;39.25;94291.47;4952744;28;8727;-35
2023/12/30 00:20:12;;;;;;;;;;;;;;;25.98;39.55;94294.75;4954094;28;7257;-36
2023/12/30 00:22:38;;;;;;;;;;;;;;;25.97;39.33;94295.25;4971873;28;6871;-35
2023/12/30 00:25:05;;;;;;;;;;;;;;;25.97;39.61;94304.28;4952932;28;9065;-36
2023/12/30 00:27:35;;;;;;;;;;;;;;;25.98;39.08;94311.28;4961568;28;6938;-36
2023/12/30 00:30:03;;;;;;;;;;;;;;;25.96;39.73;94313.81;4962675;28;7240;-36
2023/12/30 00:32:32;;;;;;;;;;;;;;;25.97;39.08;94306.28;4958655;28;9108;-36
2023/12/30 00:34:58;;;;;;;;;;;;;;;25.96;39.42;94316.56;4957434;28;8538;-36
2023/12/30 00:37:27;;;;;;;;;;;;;;;25.97;38.80;94318.06;4957304;28;8726;-36
2023/12/30 00:39:53;;;;;;;;;;;;;;;25.95;39.03;94319.81;4959181;28;7223;-57
2023/12/30 00:42:20;;;;;;;;;;;;;;;25.96;39.46;94315.81;4958567;28;7195;-57
2023/12/30 00:44:49;;;;;;;;;;;;;;;25.97;39.68;94325.56;4967931;28;9097;-57
2023/12/30 00:47:15;;;;;;;;;;;;;;;25.97;39.13;94328.31;4975258;28;9180;-57
2023/12/30 00:49:43;;;;;;;;;;;;;;;25.97;38.94;94326.31;4973321;28;7184;-57
2023/12/30 00:52:10;;;;;;;;;;;;;;;25.93;39.31;94325.84;4961648;28;7278;-57
2023/12/30 00:54:38;;;;;;;;;;;;;;;25.97;39.65;94340.09;4958222;28;8973;-57
2023/12/30 00:57:04;;;;;;;;;;;;;;;25.97;39.71;94333.84;4964404;28;9079;-57
2023/12/30 00:59:31;;;;;;;;;;;;;;;25.97;38.75;94339.34;4973771;28;6989;-57
2023/12/30 01:01:59;;;;;;;;;;;;;;;25.94;38.97;94341.16;4960557;28;9422;-57
2023/12/30 01:04:25;;;;;;;;;;;;;;;25.95;39.23;94342.63;4955449;28;7462;-57
2023/12/30 01:06:51;;;;;;;;;;;;;;;25.96;39.20;94341.38;4959482;28;9422;-58
2023/12/30 01:09:17;;;;;;;;;;;;;;;25.97;38.85;94342.09;4962209;28;8757;-57
2023/12/30 01:11:43;;;;;;;;;;;;;;;25.97;39.24;94340.09;4970583;28;9667;-57
2023/12/30 01:14:12;;;;;;;;;;;;;;;25.95;39.45;94341.88;4972318;28;7014;-57
2023/12/30 01:16:38;;;;;;;;;;;;;;;25.97;39.03;94342.84;4956138;28;7261;-57
2023/12/30 01:19:04;;;;;;;;;;;;;;;25.98;39.52;94341.59;4957177;28;7137;-57
2023/12/30 01:21:32;;;;;;;;;;;;;;;25.94;39.38;94341.16;4970203;28;8064;-57
2023/12/30 01:23:58;;;;;;;;;;;;;;;25.98;39.42;94352.63;4947535;28;7066;-57
2023/12/30 01:26:24;;;;;;;;;;;;;;;25.97;39.17;94350.38;4968313;28;7151;-57
2023/12/30 01:28:50;;;;;;;;;;;;;;;25.96;38.64;94354.41;4954924;28;7066;-57
2023/12/30 01:31:17;;;;;;;;;;;;;;;25.96;38.83;94352.41;4973250;28;7219;-57
2023/12/30 01:33:43;;;;;;;;;;;;;;;25.96;39.26;94351.66;4956678;28;9467;-57
2023/12/30 01:36:10;;;;;;;;;;;;;;;25.95;38.73;94353.66;4968911;28;9291;-57
2023/12/30 01:38:41;;;;;;;;;;;;;;;25.97;38.66;94362.16;4966031;28;7154;-57
2023/12/30 01:41:10;;;;;;;;;;;;;;;25.98;38.58;94362.91;4975478;28;7956;-57
2023/12/30 01:43:37;;;;;;;;;;;;;;;25.97;38.51;94364.91;4976990;28;7060;-57
2023/12/30 01:46:24;;;;;;;;;;;;;;;25.96;38.55;94374.44;4960068;28;7687;-57
2023/12/30 01:48:53;;;;;;;;;;;;;;;25.94;39.30;94379.72;4971431;28;8994;-57
2023/12/30 01:51:31;;;;;;;;;;;;;;;25.97;38.65;94384.19;4977025;28;9170;-36
2023/12/30 01:54:09;;;;;;;;;;;;;;;25.96;38.81;94376.44;4953744;28;7252;-36
2023/12/30 01:56:44;;;;;;;;;;;;;;;25.95;38.54;94378.44;4966008;28;9080;-36
2023/12/30 01:59:44;;;;;;;;;;;;;;;25.97;39.25;94384.19;4956611;28;7245;-36
2023/12/30 02:02:22;;;;;;;;;;;;;;;25.95;38.55;94383.97;4962746;28;7276;-36
2023/12/30 02:04:49;;;;;;;;;;;;;;;25.92;39.13;94382.25;4950540;28;7330;-35
2023/12/30 02:07:16;;;;;;;;;;;;;;;25.95;39.14;94392.22;4956170;28;9727;-36
2023/12/30 02:09:43;;;;;;;;;;;;;;;25.94;38.48;94390.75;4955515;28;9139;-35
2023/12/30 02:12:09;;;;;;;;;;;;;;;25.94;38.70;94387.25;4967246;28;7680;-36
2023/12/30 02:14:37;;;;;;;;;;;;;;;25.90;39.33;94379.22;4973307;28;7682;-36
2023/12/30 02:17:05;;;;;;;;;;;;;;;25.95;38.79;94388.72;4955902;28;7418;-36
2023/12/30 02:19:33;;;;;;;;;;;;;;;25.91;38.57;94389.00;4970651;28;7249;-36
2023/12/30 02:22:00;;;;;;;;;;;;;;;25.93;38.64;94386.47;4953071;28;6943;-35
2023/12/30 02:24:28;;;;;;;;;;;;;;;25.95;38.52;94391.47;4958366;28;9056;-36
2023/12/30 02:27:08;;;;;;;;;;;;;;;25.93;38.67;94385.72;4959705;28;9087;-35
2023/12/30 02:29:51;;;;;;;;;;;;;;;25.93;38.98;94385.72;4959033;28;9104;-36
2023/12/30 02:32:30;;;;;;;;;;;;;;;25.95;38.89;94389.47;4975608;28;7216;-35
2023/12/30 02:34:56;;;;;;;;;;;;;;;25.95;38.57;94391.47;4958823;28;7323;-36
2023/12/30 02:37:28;;;;;;;;;;;;;;;25.95;39.18;94396.97;4956828;28;6987;-35
2023/12/30 02:40:04;;;;;;;;;;;;;;;25.95;38.89;94405.25;4970333;28;7596;-35
2023/12/30 02:42:32;;;;;;;;;;;;;;;25.93;39.04;94399.50;4949744;28;9397;-35
2023/12/30 02:45:00;;;;;;;;;;;;;;;25.94;38.49;94395.50;4958037;28;9047;-35
2023/12/30 02:47:26;;;;;;;;;;;;;;;25.94;39.02;94401.03;4974873;28;9099;-36
2023/12/30 02:49:52;;;;;;;;;;;;;;;25.95;38.94;94397.75;4971150;28;9384;-35
2023/12/30 02:52:19;;;;;;;;;;;;;;;25.93;39.19;94396.75;4939552;28;7315;-36
2023/12/30 02:54:48;;;;;;;;;;;;;;;25.93;38.43;94397.50;4956107;28;7061;-36
2023/12/30 02:57:14;;;;;;;;;;;;;;;25.93;38.97;94394.75;4956529;28;9142;-36
2023/12/30 02:59:43;;;;;;;;;;;;;;;25.95;39.04;94385.97;4956509;28;8786;-57
2023/12/30 03:02:11;;;;;;;;;;;;;;;25.95;38.68;94385.97;4950604;28;7071;-57
2023/12/30 03:04:40;;;;;;;;;;;;;;;25.95;38.22;94391.47;4972204;28;7666;-57
2023/12/30 03:07:07;;;;;;;;;;;;;;;25.93;38.75;94392.00;4971910;28;9042;-57
2023/12/30 03:09:34;;;;;;;;;;;;;;;25.93;38.63;94400.25;4957953;28;8627;-57
2023/12/30 03:12:04;;;;;;;;;;;;;;;25.91;38.30;94394.53;4964925;28;6991;-57
2023/12/30 03:14:29;;;;;;;;;;;;;;;25.93;38.57;94399.50;4973508;28;7828;-57
2023/12/30 03:16:57;;;;;;;;;;;;;;;25.93;38.72;94399.50;4970788;28;7357;-57
2023/12/30 03:19:29;;;;;;;;;;;;;;;25.92;39.12;94401.53;4954161;28;7196;-56
2023/12/30 03:22:02;;;;;;;;;;;;;;;25.92;38.53;94400.78;4968432;28;7381;-57
2023/12/30 03:24:39;;;;;;;;;;;;;;;25.92;38.91;94398.78;4958461;28;9064;-57
2023/12/30 03:27:15;;;;;;;;;;;;;;;25.93;38.30;94392.00;4951755;28;7489;-56
2023/12/30 03:29:54;;;;;;;;;;;;;;;25.94;38.75;94399.00;4958271;28;7197;-57
2023/12/30 03:32:27;;;;;;;;;;;;;;;25.93;38.44;94399.50;4972804;28;8124;-57
2023/12/30 03:35:06;;;;;;;;;;;;;;;25.91;38.93;94400.03;4957130;28;9427;-57
2023/12/30 03:37:33;;;;;;;;;;;;;;;25.91;38.98;94389.00;4952961;28;9420;-57
2023/12/30 03:40:10;;;;;;;;;;;;;;;25.89;38.24;94388.78;4971212;28;9242;-57
2023/12/30 03:42:37;;;;;;;;;;;;;;;25.90;38.49;94384.75;4960439;28;7604;-57
2023/12/30 03:45:05;;;;;;;;;;;;;;;25.89;38.70;94391.53;4975151;28;9191;-57
2023/12/30 03:47:33;;;;;;;;;;;;;;;25.90;39.14;94387.50;4970958;28;9045;-57
2023/12/30 03:50:06;;;;;;;;;;;;;;;25.89;38.23;94386.03;4948340;28;9103;-57
2023/12/30 03:52:32;;;;;;;;;;;;;;;25.88;39.03;94381.75;4969587;28;7267;-57
2023/12/30 03:54:59;;;;;;;;;;;;;;;25.88;38.59;94390.03;4952610;28;8997;-57
2023/12/30 04:01:23;;;;;;;;;;;;;;;25.87;38.42;94383.03;4907970;29;8959;-57
2023/12/30 04:03:58;;;;;;;;;;;;;;;25.86;38.92;94373.25;4895920;29;7226;-57
2023/12/30 04:06:26;;;;;;;;;;;;;;;25.84;38.92;94361.25;4887240;29;7295;-56
2023/12/30 04:08:52;;;;;;;;;;;;;;;25.82;38.80;94364.53;4892631;29;7125;-39
2023/12/30 04:11:26;;;;;;;;;;;;;;;25.83;38.96;94357.75;4888654;29;8773;-39
2023/12/30 04:13:52;;;;;;;;;;;;;;;25.84;38.98;94364.00;4911437;29;7121;-39
2023/12/30 04:16:28;;;;;;;;;;;;;;;25.84;38.62;94364.00;4896357;29;7382;-41
2023/12/30 04:18:56;;;;;;;;;;;;;;;25.85;38.53;94362.75;4891083;29;7283;-38
2023/12/30 04:21:32;;;;;;;;;;;;;;;25.87;38.25;94366.50;4914972;29;7844;-38
2023/12/30 04:23:58;;;;;;;;;;;;;;;25.86;38.47;94367.75;4899859;29;7331;-38
2023/12/30 04:26:35;;;;;;;;;;;;;;;25.87;38.07;94369.25;4902880;29;8735;-38
2023/12/30 04:29:10;;;;;;;;;;;;;;;25.87;39.07;94363.00;4900511;29;7074;-39
2023/12/30 04:32:14;;;;;;;;;;;;;;;25.86;38.34;94362.22;4899995;29;9484;-39
2023/12/30 04:34:45;;;;;;;;;;;;;;;25.86;39.00;94367.75;4871519;29;7247;-38
2023/12/30 04:37:32;;;;;;;;;;;;;;;25.88;38.31;94364.50;4915516;29;7201;-38
2023/12/30 04:40:30;;;;;;;;;;;;;;;25.88;38.45;94356.97;4899320;29;9057;-38
2023/12/30 04:42:56;;;;;;;;;;;;;;;25.87;38.30;94357.47;4868708;29;9050;-38
2023/12/30 04:45:22;;;;;;;;;;;;;;;25.82;38.40;94361.00;4861995;29;7248;-39
2023/12/30 04:47:48;;;;;;;;;;;;;;;25.83;38.27;94368.78;4850805;29;9400;-39
2023/12/30 04:50:14;;;;;;;;;;;;;;;25.83;38.59;94368.78;4862067;29;9111;-38
2023/12/30 04:52:42;;;;;;;;;;;;;;;25.83;38.59;94370.78;4853148;29;7689;-40
2023/12/30 04:55:13;;;;;;;;;;;;;;;25.85;38.60;94371.78;4844591;29;8766;-38
2023/12/30 04:57:47;;;;;;;;;;;;;;;25.87;38.20;94383.03;4857634;29;8793;-38
2023/12/30 05:00:15;;;;;;;;;;;;;;;25.85;38.32;94377.28;4869097;29;8939;-39
2023/12/30 05:02:54;;;;;;;;;;;;;;;25.84;38.14;94380.53;4850795;29;7002;-38
2023/12/30 05:05:20;;;;;;;;;;;;;;;25.80;38.36;94386.34;4853285;29;7149;-38
2023/12/30 05:07:56;;;;;;;;;;;;;;;25.80;38.61;94380.06;4846505;29;7236;-38
2023/12/30 05:10:41;;;;;;;;;;;;;;;25.83;38.74;94384.56;4861955;29;7409;-38
2023/12/30 05:13:27;;;;;;;;;;;;;;;25.80;38.12;94386.34;4862665;29;7232;-38
2023/12/30 05:16:13;;;;;;;;;;;;;;;25.80;38.68;94386.34;4864799;29;6940;-40
2023/12/30 05:18:58;;;;;;;;;;;;;;;25.80;38.09;94382.81;4871286;28;7039;-38
2023/12/30 05:21:23;;;;;;;;;;;;;;;25.80;38.09;94386.34;4971138;28;7290;-47
2023/12/30 05:23:59;;;;;;;;;;;;;;;25.80;38.40;94388.34;4955467;28;7256;-46
2023/12/30 05:26:30;;;;;;;;;;;;;;;25.79;38.20;94395.88;4952240;28;9147;-47
2023/12/30 05:28:58;;;;;;;;;;;;;;;25.81;38.36;94398.09;4957104;28;7072;-45
2023/12/30 05:31:36;;;;;;;;;;;;;;;25.80;38.81;94397.34;4941640;28;9112;-46
2023/12/30 05:34:09;;;;;;;;;;;;;;;25.80;37.95;94397.34;4951108;28;7823;-47
2023/12/30 05:36:41;;;;;;;;;;;;;;;25.81;38.36;94400.88;4965357;28;8795;-46
2023/12/30 05:39:16;;;;;;;;;;;;;;;25.80;38.47;94399.34;4972863;28;7218;-49
2023/12/30 05:41:44;;;;;;;;;;;;;;;25.80;38.41;94400.09;4960537;28;7135;-45
2023/12/30 05:44:10;;;;;;;;;;;;;;;25.79;38.49;94395.13;4954560;28;7067;-46
2023/12/30 05:46:36;;;;;;;;;;;;;;;25.79;38.50;94401.38;4958566;28;8711;-46
2023/12/30 05:49:03;;;;;;;;;;;;;;;25.81;37.85;94401.63;4944267;28;7034;-46
2023/12/30 05:51:29;;;;;;;;;;;;;;;25.79;38.27;94392.38;4957848;28;7630;-46
2023/12/30 05:53:55;;;;;;;;;;;;;;;25.81;38.47;94400.88;4956160;28;9439;-48
2023/12/30 05:56:24;;;;;;;;;;;;;;;25.81;38.03;94407.13;4956674;28;7255;-46
2023/12/30 05:58:57;;;;;;;;;;;;;;;25.81;38.51;94409.88;4946618;28;7004;-47
2023/12/30 06:01:43;;;;;;;;;;;;;;;25.81;38.59;94409.88;4957049;28;9069;-47
2023/12/30 06:04:17;;;;;;;;;;;;;;;25.79;38.28;94398.63;4958937;28;9134;-47
2023/12/30 06:06:52;;;;;;;;;;;;;;;25.79;38.80;94406.91;4960221;28;7002;-46
2023/12/30 06:09:53;;;;;;;;;;;;;;;25.78;37.88;94419.16;4976008;28;7017;-45
2023/12/30 06:12:20;;;;;;;;;;;;;;;25.80;38.00;94415.88;4861199;29;9093;-47
2023/12/30 06:14:48;;;;;;;;;;;;;;;25.78;38.08;94418.41;4860361;29;7280;-45
2023/12/30 06:17:43;;;;;;;;;;;;;;;25.80;37.99;94422.16;4862673;29;9104;-46
2023/12/30 06:20:25;;;;;;;;;;;;;;;25.80;38.43;94416.63;4817957;29;9260;-46
2023/12/30 06:22:50;;;;;;;;;;;;;;;25.79;38.46;94420.66;4806207;29;8972;-46
2023/12/30 06:25:35;;;;;;;;;;;;;;;25.81;37.99;94420.16;4790823;29;6977;-47
2023/12/30 06:28:15;;;;;;;;;;;;;;;25.80;38.15;94419.41;4790836;29;8782;-46
2023/12/30 06:30:51;;;;;;;;;;;;;;;25.79;38.02;94420.66;4788279;30;9184;-36
2023/12/30 06:33:20;;;;;;;;;;;;;;;25.79;38.57;94417.16;4788880;29;9380;-36
2023/12/30 06:36:07;;;;;;;;;;;;;;;25.79;38.59;94420.66;4811639;29;9480;-36
2023/12/30 06:39:02;;;;;;;;;;;;;;;25.79;38.57;94420.66;4789837;29;7356;-36
2023/12/30 06:41:44;;;;;;;;;;;;;;;25.80;38.33;94413.88;4761430;30;7212;-36
2023/12/30 06:44:10;;;;;;;;;;;;;;;25.79;38.65;94420.66;4770282;30;7280;-36
2023/12/30 06:46:48;;;;;;;;;;;;;;;25.77;38.21;94414.94;4767554;30;9145;-36
2023/12/30 06:49:25;;;;;;;;;;;;;;;25.74;38.60;94404.16;4839144;29;9554;-56
2023/12/30 06:51:59;;;;;;;;;;;;;;;25.73;39.03;94403.41;4824504;29;7081;-57
2023/12/30 06:54:25;;;;;;;;;;;;;;;25.71;38.85;94394.91;4839050;29;8727;-57
2023/12/30 06:56:53;;;;;;;;;;;;;;;25.71;38.77;94400.41;4871910;29;9146;-57
2023/12/30 06:59:20;;;;;;;;;;;;;;;25.72;38.88;94401.16;4898585;29;9228;-57
2023/12/30 07:01:45;;;;;;;;;;;;;;;25.69;38.44;94394.66;4878187;29;7240;-57
2023/12/30 07:04:13;;;;;;;;;;;;;;;25.77;38.59;94397.63;4881580;29;9070;-57
2023/12/30 07:06:41;;;;;;;;;;;;;;;25.78;38.40;94390.84;4889320;29;7270;-56
2023/12/30 07:09:07;;;;;;;;;;;;;;;25.79;38.24;94392.38;4872576;29;9575;-57
2023/12/30 07:11:33;;;;;;;;;;;;;;;25.81;38.23;94387.09;4877468;29;8427;-56
2023/12/30 07:13:59;;;;;;;;;;;;;;;25.81;38.81;94387.84;4893270;29;7301;-56
2023/12/30 07:16:27;;;;;;;;;;;;;;;25.82;38.24;94383.81;4888990;29;6978;-57
2023/12/30 07:18:54;;;;;;;;;;;;;;;25.83;38.53;94390.06;4947189;28;9388;-57
2023/12/30 07:21:22;;;;;;;;;;;;;;;25.85;38.73;94391.06;4950441;28;9162;-57
2023/12/30 07:23:48;;;;;;;;;;;;;;;25.81;38.82;94390.59;4946713;28;7184;-57
2023/12/30 07:26:15;;;;;;;;;;;;;;;25.83;38.43;94396.34;4955230;28;9065;-57
2023/12/30 07:28:42;;;;;;;;;;;;;;;25.85;38.53;94391.06;4960392;28;7549;-57
2023/12/30 07:31:10;;;;;;;;;;;;;;;25.80;38.25;94405.63;4964946;28;8943;-56
2023/12/30 07:33:36;;;;;;;;;;;;;;;25.76;39.15;94396.88;4959160;28;9100;-56
2023/12/30 07:36:06;;;;;;;;;;;;;;;25.77;39.22;94403.91;4952567;28;7134;-57
2023/12/30 07:38:32;;;;;;;;;;;;;;;25.78;39.08;94408.13;4970500;28;9424;-56
2023/12/30 07:41:00;;;;;;;;;;;;;;;25.73;38.33;94402.69;4969492;28;7545;-56
2023/12/30 07:43:43;;;;;;;;;;;;;;;25.74;38.97;94412.44;4973930;28;7874;-56
2023/12/30 07:46:10;;;;;;;;;;;;;;;25.78;38.75;94407.38;4969991;28;8850;-57
2023/12/30 07:48:45;;;;;;;;;;;;;;;25.82;38.52;94410.59;4957046;28;7355;-57
2023/12/30 07:51:11;;;;;;;;;;;;;;;25.82;38.58;94403.09;4958128;28;8811;-57
2023/12/30 07:53:39;;;;;;;;;;;;;;;25.80;38.34;94402.88;4958239;28;7239;-56
2023/12/30 07:56:07;;;;;;;;;;;;;;;25.82;38.89;94408.59;4956170;28;8970;-57
2023/12/30 07:58:35;;;;;;;;;;;;;;;25.80;38.64;94411.13;4960230;28;9025;-56
2023/12/30 08:01:16;;;;;;;;;;;;;;;25.81;38.33;94401.63;4958373;28;7276;-45
2023/12/30 08:03:48;;;;;;;;;;;;;;;25.84;38.39;94406.09;4954628;28;8786;-46
2023/12/30 08:06:16;;;;;;;;;;;;;;;25.86;38.17;94400.09;4969122;28;9408;-45
2023/12/30 08:08:43;;;;;;;;;;;;;;;25.86;38.52;94400.81;4953686;28;9173;-47
2023/12/30 08:11:12;;;;;;;;;;;;;;;25.87;38.39;94410.59;4964397;28;7280;-48
2023/12/30 08:13:39;;;;;;;;;;;;;;;25.87;38.29;94412.59;4964276;28;9065;-46
2023/12/30 08:16:18;;;;;;;;;;;;;;;25.78;38.49;94399.13;4953225;29;7279;-47
2023/12/30 08:18:50;;;;;;;;;;;;;;;25.75;38.38;94411.91;4957589;28;9141;-50
2023/12/30 08:21:16;;;;;;;;;;;;;;;25.76;38.45;94415.41;4953449;28;8782;-49
2023/12/30 08:23:44;;;;;;;;;;;;;;;25.74;39.17;94415.94;4956263;28;9391;-47
2023/12/30 08:26:13;;;;;;;;;;;;;;;25.73;38.80;94421.97;4947146;28;6989;-48
2023/12/30 08:28:42;;;;;;;;;;;;;;;25.73;38.62;94425.44;4951082;28;7241;-46
2023/12/30 08:31:12;;;;;;;;;;;;;;;25.74;39.12;94426.97;4954761;28;9191;-46
2023/12/30 08:33:39;;;;;;;;;;;;;;;25.74;38.60;94429.72;4954015;28;7251;-46
2023/12/30 08:36:09;;;;;;;;;;;;;;;25.73;38.85;94428.19;4966027;28;7066;-49
2023/12/30 08:39:07;;;;;;;;;;;;;;;25.75;38.80;94433.22;4973083;28;8747;-46
2023/12/30 08:41:34;;;;;;;;;;;;;;;25.73;38.96;94435.75;4902038;29;8897;-47
2023/12/30 08:44:37;;;;;;;;;;;;;;;25.74;38.69;94442.72;4899214;29;7326;-45
2023/12/30 08:47:20;;;;;;;;;;;;;;;25.72;38.91;94429.47;4874311;29;8201;-46
2023/12/30 08:49:48;;;;;;;;;;;;;;;25.77;41.71;94434.22;4860315;29;7430;-48
2023/12/30 08:52:19;;;;;;;;;;;;;;;25.81;40.02;94431.94;4880547;29;7722;-49
2023/12/30 08:54:55;;;;;;;;;;;;;;;25.77;39.53;94431.47;4864723;29;7229;-47
2023/12/30 08:57:32;;;;;;;;;;;;;;;25.80;39.25;94435.16;4877456;29;7118;-47
2023/12/30 09:00:42;;;;;;;;;;;;;;;25.79;39.84;94439.19;4861134;29;7193;-50
2023/12/30 09:03:19;;;;;;;;;;;;;;;25.66;39.47;94441.78;4825235;29;7059;-51
2023/12/30 09:06:05;;;;;;;;;;;;;;;25.60;37.93;94438.31;4807127;29;8792;-47
2023/12/30 09:08:50;;;;;;;;;;;;;;;25.62;38.04;94431.03;4825363;29;8954;-48
2023/12/30 09:11:38;;;;;;;;;;;;;;;25.60;37.87;94425.28;4825192;29;7090;-35
2023/12/30 09:14:06;;;;;;;;;;;;;;;25.60;37.87;94424.56;4823774;29;7384;-35
2023/12/30 09:16:33;;;;;;;;;;;;;;;25.59;38.35;94432.06;4804722;29;9115;-35
2023/12/30 09:19:03;;;;;;;;;;;;;;;25.62;37.56;94425.50;4836801;29;9337;-35
2023/12/30 09:21:29;;;;;;;;;;;;;;;25.62;37.20;94417.25;4855288;29;9417;-36
2023/12/30 09:23:56;;;;;;;;;;;;;;;25.61;37.59;94429.53;4886988;29;8209;-35
2023/12/30 09:26:25;;;;;;;;;;;;;;;25.63;37.19;94427.03;4892435;29;7208;-35
2023/12/30 09:28:53;;;;;;;;;;;;;;;25.64;37.24;94428.53;4896090;29;9271;-36
2023/12/30 09:31:45;;;;;;;;;;;;;;;25.67;37.86;94426.75;4884266;29;9007;-35
2023/12/30 09:34:21;;;;;;;;;;;;;;;25.63;37.96;94427.03;4896050;29;8752;-35
2023/12/30 09:37:02;;;;;;;;;;;;;;;25.63;37.96;94429.78;4888539;29;7254;-35
2023/12/30 09:39:35;;;;;;;;;;;;;;;25.64;37.75;94436.03;4910908;28;7338;-35
2023/12/30 09:42:19;;;;;;;;;;;;;;;25.66;37.68;94431.53;4959639;28;7265;-35
2023/12/30 09:44:55;;;;;;;;;;;;;;;25.66;38.09;94434.28;4967227;28;9085;-35
2023/12/30 09:47:45;;;;;;;;;;;;;;;25.67;37.33;94433.00;4960787;28;6994;-35
2023/12/30 09:50:44;;;;;;;;;;;;;;;25.66;37.50;94437.03;4955745;28;7215;-35
2023/12/30 09:53:38;;;;;;;;;;;;;;;25.67;38.28;94441.28;4879149;29;8760;-35
2023/12/30 09:56:07;;;;;;;;;;;;;;;25.67;38.01;94433.00;4869340;29;9070;-35
2023/12/30 09:59:03;;;;;;;;;;;;;;;25.69;37.96;94433.25;4862226;29;9202;-35
2023/12/30 10:01:57;;;;;;;;;;;;;;;25.71;38.65;94439.00;4806181;29;7572;-35
2023/12/30 10:04:35;;;;;;;;;;;;;;;25.72;37.98;94423.97;4796072;29;7660;-35
2023/12/30 10:07:01;;;;;;;;;;;;;;;25.75;38.68;94425.69;4798333;29;9124;-35
2023/12/30 10:09:46;;;;;;;;;;;;;;;25.79;38.51;94417.16;4805008;29;7909;-35
2023/12/30 10:12:23;;;;;;;;;;;;;;;25.81;38.11;94420.16;4786910;29;9165;-35
2023/12/30 10:14:50;;;;;;;;;;;;;;;25.78;37.81;94412.91;4801537;29;8793;-35
2023/12/30 10:17:17;;;;;;;;;;;;;;;25.76;38.36;94407.91;4797063;29;7290;-35
2023/12/30 10:19:56;;;;;;;;;;;;;;;25.80;37.87;94402.88;4807599;29;9084;-36
2023/12/30 10:22:36;;;;;;;;;;;;;;;25.80;37.45;94402.88;4808600;29;7291;-36
2023/12/30 10:25:02;;;;;;;;;;;;;;;25.84;37.74;94399.81;4793724;29;7381;-35
2023/12/30 10:27:40;;;;;;;;;;;;;;;25.86;38.47;94395.28;4803360;29;7190;-36
2023/12/30 10:30:10;;;;;;;;;;;;;;;25.83;37.86;94393.59;4855611;29;7253;-36
2023/12/30 10:33:15;;;;;;;;;;;;;;;25.84;38.13;94397.06;4881004;29;9160;-35
2023/12/30 10:35:46;;;;;;;;;;;;;;;25.82;37.82;94386.56;4891625;29;7614;-36
2023/12/30 10:38:14;;;;;;;;;;;;;;;25.82;38.54;94381.06;4926787;28;9707;-36
2023/12/30 10:40:53;;;;;;;;;;;;;;;25.92;37.95;94373.97;4958203;28;9427;-36
2023/12/30 10:43:26;;;;;;;;;;;;;;;25.90;38.33;94370.97;4959416;28;7248;-36
2023/12/30 10:46:05;;;;;;;;;;;;;;;25.89;37.94;94377.75;4953361;28;9441;-35
2023/12/30 10:48:52;;;;;;;;;;;;;;;25.84;37.75;94369.50;4968040;28;7004;-35
2023/12/30 10:51:25;;;;;;;;;;;;;;;25.88;37.83;94365.22;4959182;28;7260;-35
2023/12/30 10:54:09;;;;;;;;;;;;;;;25.89;37.18;94363.97;4958903;28;8670;-35
2023/12/30 10:57:14;;;;;;;;;;;;;;;25.93;37.68;94363.69;4975346;28;6926;-35
2023/12/30 10:59:49;;;;;;;;;;;;;;;25.92;37.45;94362.22;4972242;28;8841;-36
2023/12/30 11:02:33;;;;;;;;;;;;;;;25.89;37.92;94355.72;4958969;28;6992;-36
2023/12/30 11:05:01;;;;;;;;;;;;;;;25.89;37.13;94355.72;4953490;28;9248;-36
2023/12/30 11:07:31;;;;;;;;;;;;;;;25.90;37.41;94348.19;4955560;28;7227;-36
2023/12/30 11:09:57;;;;;;;;;;;;;;;25.89;38.13;94349.44;4968728;28;7317;-36
2023/12/30 11:12:28;;;;;;;;;;;;;;;25.87;37.50;94347.22;4953910;28;7238;-36
2023/12/30 11:14:55;;;;;;;;;;;;;;;25.86;37.43;94342.94;4959402;28;7236;-36
2023/12/30 11:17:42;;;;;;;;;;;;;;;25.85;38.31;94338.72;4960351;28;7010;-36
2023/12/30 11:20:31;;;;;;;;;;;;;;;25.92;37.70;94343.66;4954324;28;9047;-37
2023/12/30 11:22:59;;;;;;;;;;;;;;;25.94;37.95;94341.16;4969467;28;7069;-36
2023/12/30 11:25:43;;;;;;;;;;;;;;;25.96;38.01;94333.09;4954758;28;9091;-36
2023/12/30 11:28:16;;;;;;;;;;;;;;;25.97;38.08;94326.31;4967351;28;7030;-36
2023/12/30 11:30:44;;;;;;;;;;;;;;;25.99;37.85;94320.31;4967499;28;9033;-39
2023/12/30 11:33:13;;;;;;;;;;;;;;;26.01;38.30;94318.50;4953980;28;7003;-40
2023/12/30 11:36:05;;;;;;;;;;;;;;;26.04;37.80;94309.22;4964230;28;9191;-40
2023/12/30 11:38:34;;;;;;;;;;;;;;;26.07;37.80;94318.47;4964303;28;8157;-40
2023/12/30 11:41:04;;;;;;;;;;;;;;;26.06;37.95;94309.44;4957339;28;9374;-40
2023/12/30 11:43:41;;;;;;;;;;;;;;;26.07;38.33;94302.69;4961681;28;9089;-41
2023/12/30 11:46:07;;;;;;;;;;;;;;;26.11;38.29;94299.66;4966453;28;9126;-40
2023/12/30 11:48:33;;;;;;;;;;;;;;;26.12;38.15;94296.38;4961690;28;8780;-40
2023/12/30 11:51:01;;;;;;;;;;;;;;;26.15;37.81;94294.59;4953173;28;9074;-40
2023/12/30 11:53:34;;;;;;;;;;;;;;;26.17;37.63;94292.84;4957771;28;9127;-40
2023/12/30 11:56:01;;;;;;;;;;;;;;;26.19;38.03;94294.34;4945822;28;9194;-40
2023/12/30 11:58:30;;;;;;;;;;;;;;;26.20;37.96;94290.31;4945480;28;7872;-42
2023/12/30 12:01:01;;;;;;;;;;;;;;;26.23;37.80;94286.53;4967584;28;8870;-40
2023/12/30 12:03:29;;;;;;;;;;;;;;;26.21;38.07;94278.03;4959920;28;9158;-42
2023/12/30 12:05:55;;;;;;;;;;;;;;;26.23;37.80;94275.50;4948457;28;9250;-40
2023/12/30 12:08:22;;;;;;;;;;;;;;;26.24;38.04;94268.69;4954491;28;7380;-40
2023/12/30 12:10:48;;;;;;;;;;;;;;;26.29;37.92;94273.41;4956438;28;8891;-40
2023/12/30 12:13:20;;;;;;;;;;;;;;;26.28;38.20;94263.63;4953470;28;8839;-41
2023/12/30 12:15:49;;;;;;;;;;;;;;;26.34;38.23;94264.34;4957519;28;7070;-40
2023/12/30 12:18:18;;;;;;;;;;;;;;;26.33;38.36;94268.34;4971094;28;9397;-40
2023/12/30 12:21:18;;;;;;;;;;;;;;;26.36;38.34;94264.56;4946988;28;7199;-40
2023/12/30 12:23:44;;;;;;;;;;;;;;;26.35;38.71;94255.56;4965256;28;7295;-40
2023/12/30 12:26:31;;;;;;;;;;;;;;;26.38;38.57;94257.25;4977790;28;6996;-39
2023/12/30 12:28:58;;;;;;;;;;;;;;;26.40;38.13;94248.47;4959485;28;7449;-41
2023/12/30 12:31:30;;;;;;;;;;;;;;;26.41;38.38;94249.94;4961539;28;7435;-40
2023/12/30 12:33:57;;;;;;;;;;;;;;;26.42;38.32;94245.94;4970154;28;9390;-40
2023/12/30 12:36:24;;;;;;;;;;;;;;;26.44;38.55;94243.41;4966749;28;9091;-40
2023/12/30 12:38:50;;;;;;;;;;;;;;;26.42;38.77;94241.19;4950399;28;6998;-41
2023/12/30 12:41:17;;;;;;;;;;;;;;;26.45;38.90;94239.38;4957433;28;7229;-58
2023/12/30 12:43:44;;;;;;;;;;;;;;;26.46;38.93;94235.38;4970790;28;7247;-58
2023/12/30 12:46:11;;;;;;;;;;;;;;;26.52;38.77;94233.28;4957835;28;8821;-58
2023/12/30 12:48:37;;;;;;;;;;;;;;;26.52;38.56;94223.00;4976904;28;7307;-58
2023/12/30 12:51:03;;;;;;;;;;;;;;;26.56;38.84;94223.44;4973654;28;7187;-58
2023/12/30 12:53:43;;;;;;;;;;;;;;;26.55;38.92;94227.47;4949897;28;6990;-58
2023/12/30 12:56:16;;;;;;;;;;;;;;;26.58;38.90;94223.66;4957902;28;7168;-58
2023/12/30 12:58:42;;;;;;;;;;;;;;;26.60;39.03;94217.66;4956841;28;9121;-57
2023/12/30 13:01:10;;;;;;;;;;;;;;;26.61;38.51;94206.09;4974920;28;9190;-56
2023/12/30 13:03:36;;;;;;;;;;;;;;;26.62;38.62;94209.59;4962370;28;9133;-57
2023/12/30 13:06:12;;;;;;;;;;;;;;;26.63;38.33;94211.81;4972416;28;6996;-57
2023/12/30 13:08:59;;;;;;;;;;;;;;;26.65;38.49;94203.75;4973827;28;9422;-58
2023/12/30 13:11:27;;;;;;;;;;;;;;;26.67;38.52;94206.00;4960748;28;9455;-57
2023/12/30 13:13:54;;;;;;;;;;;;;;;26.68;38.47;94205.50;4957251;28;7059;-57
2023/12/30 13:16:21;;;;;;;;;;;;;;;26.70;38.22;94202.94;4952661;28;9148;-57
2023/12/30 13:18:57;;;;;;;;;;;;;;;26.72;38.33;94202.41;4977481;28;7195;-58
2023/12/30 13:21:29;;;;;;;;;;;;;;;26.73;38.79;94187.41;4959523;28;9143;-57
2023/12/30 13:24:04;;;;;;;;;;;;;;;26.74;38.00;94199.91;4957211;28;7193;-57
2023/12/30 13:26:39;;;;;;;;;;;;;;;26.77;38.26;94193.34;4957573;28;8302;-57
2023/12/30 13:29:06;;;;;;;;;;;;;;;26.74;38.20;94192.38;4956730;28;6947;-58